Aérodrome :
LOGIN :

S'inscrire | Disclaimer

   EN    FR    IT 

 










Légende :    VFR   VFR Marginal   IFR   IFR Intensif   IFR Très Intensif
Visi : 
Plafond : 
>= 8 km
>= 3000ft
5 à 8 km
1000 à 3000 ft
1500m à 5 km
500 à 1000 ft
800 à 1500m
200 à 500 ft
< 800m
< 200 ft
Symboles :   Orages  Brouillard  Fortes neiges  Fortes précipitations  Vent > 20 kt
SIGMETs :   Divers  Orages  Givrage  Turbulence  Onde Orograph.  Cendres Volcan.






- Altitude de l'aérodrome : 53 ft
- Code IATA : HAM


EDDH - Hamburg

DERNIER METAR :
  • 170550Z 30010KT 9999 FEW023 BKN030 14/10 Q1013 NOSIG

METARs EXPIRÉS :
  • 170520Z 31009KT 9999 FEW020 BKN030 14/10 Q1013 NOSIG
  • 170450Z 31010KT 9999 FEW020 BKN030 14/10 Q1013 NOSIG
  • 170420Z 31011KT 9999 FEW020 BKN030 14/10 Q1013 NOSIG
  • 170350Z 30009KT 9999 FEW020 BKN030 14/11 Q1013 NOSIG
  • 170320Z 30007KT 9999 FEW020 BKN030 14/11 Q1013 NOSIG

TAF TAF EDDH
Valide du 17 à 06h jusqu'au 18 à 12h UTC


170500Z 1706/1812 30010KT 9999 BKN020
PROB30
TEMPO 1711/1714 33015G25KT
BECMG 1717/1720 30005KT
BECMG 1723/1802 BKN008
TEMPO 1803/1807 3000 DZ BKN004
BECMG 1808/1810 03005KT BKN012
BECMG 1810/1812 BKN020



MET'MAP, la Météo Aéronautique d'un coup d'oeil ! - Copyright ORBIFLY Décembre 2007 - Disclaimer

ORBIFLY MET'MAP TEAM :

Programmation & Développement : Alexandra Zaïnal
Sur une idée originale de : Baudouin d'Aumeries
Assistance à la programmation : Marc-Olivier Méhu
Soutien technique & logistique : Manuel Goepfert

Contact : metmap@orbifly.com




SOURCES & CREDITS :

   NOAA